createdAt,value
2023-03-08T00:00:24.462Z,9.28
2023-03-08T00:01:13.403Z,9.78
2023-03-08T00:02:13.732Z,13.76
2023-03-08T00:03:13.702Z,18.84
2023-03-08T00:04:13.852Z,9.44
2023-03-08T00:05:13.042Z,14.76
2023-03-08T00:06:13.368Z,11.00
2023-03-08T00:07:13.333Z,10.40
2023-03-08T00:08:13.364Z,9.00
2023-03-08T00:09:13.358Z,17.44
2023-03-08T00:10:13.617Z,11.60
2023-03-08T00:11:13.653Z,10.40
2023-03-08T00:12:13.619Z,24.00
2023-03-08T00:13:13.633Z,13.16
2023-03-08T00:14:13.794Z,16.80
2023-03-08T00:15:13.810Z,5.76
2023-03-08T00:17:13.216Z,17.88
2023-03-08T00:18:29.538Z,8.60
2023-03-08T00:19:13.717Z,5.88
2023-03-08T00:20:13.837Z,17.00
2023-03-08T00:21:13.790Z,13.12
2023-03-08T00:22:13.675Z,14.16
2023-03-08T00:23:18.792Z,13.28
2023-03-08T00:24:13.841Z,23.48
2023-03-08T00:25:13.820Z,20.60
2023-03-08T00:26:14.186Z,8.96
2023-03-08T00:27:23.109Z,15.88
2023-03-08T00:28:13.040Z,21.60
2023-03-08T00:29:13.117Z,6.80
2023-03-08T00:30:13.485Z,8.24
2023-03-08T00:31:13.744Z,8.72
2023-03-08T00:32:14.248Z,6.48
2023-03-08T00:33:13.388Z,7.76
2023-03-08T00:34:18.442Z,9.08
2023-03-08T00:35:43.148Z,0.96
2023-03-08T00:36:13.077Z,6.00
2023-03-08T00:37:13.312Z,7.16
2023-03-08T00:38:13.587Z,10.08
2023-03-08T00:39:13.893Z,11.56
2023-03-08T00:40:18.079Z,9.31
2023-03-08T00:41:13.641Z,9.24
2023-03-08T00:42:18.700Z,20.80
2023-03-08T00:43:14.145Z,21.64
2023-03-08T00:44:13.079Z,7.20
2023-03-08T00:45:18.060Z,3.20
2023-03-08T00:46:13.403Z,7.68
2023-03-08T00:47:13.340Z,21.17
2023-03-08T00:48:13.617Z,19.92
2023-03-08T00:49:13.739Z,13.68
2023-03-08T00:50:14.046Z,13.20
2023-03-08T00:51:20.288Z,21.90
2023-03-08T00:52:13.320Z,17.76
2023-03-08T00:53:13.618Z,14.24
2023-03-08T00:54:13.550Z,13.48
2023-03-08T00:55:18.558Z,12.68
2023-03-08T00:56:13.593Z,20.40
2023-03-08T00:57:13.568Z,14.08
2023-03-08T00:58:13.702Z,15.52
2023-03-08T00:59:22.588Z,16.08
2023-03-08T01:00:13.561Z,9.60
2023-03-08T01:01:18.641Z,9.60
2023-03-08T01:02:13.593Z,11.25
2023-03-08T01:03:13.782Z,4.04
2023-03-08T01:04:13.810Z,8.84
2023-03-08T01:05:14.013Z,8.84
2023-03-08T01:06:13.026Z,4.08
2023-03-08T01:07:13.016Z,6.92
2023-03-08T01:08:27.928Z,11.28
2023-03-08T01:09:12.851Z,5.40
2023-03-08T01:10:13.887Z,7.20
2023-03-08T01:11:14.085Z,5.92
2023-03-08T01:12:12.935Z,7.64
2023-03-08T01:13:13.082Z,9.48
2023-03-08T01:14:13.254Z,10.88
2023-03-08T01:15:13.137Z,9.36
2023-03-08T01:16:13.407Z,12.44
2023-03-08T01:17:13.322Z,13.44
2023-03-08T01:18:13.370Z,2.60
2023-03-08T01:19:13.391Z,6.68
2023-03-08T01:20:13.385Z,2.96
2023-03-08T01:21:13.387Z,1.64
2023-03-08T01:22:13.703Z,11.72
2023-03-08T01:23:13.673Z,17.72
2023-03-08T01:24:13.714Z,11.96
2023-03-08T01:25:18.858Z,9.16
2023-03-08T01:26:13.792Z,3.29
2023-03-08T01:27:14.113Z,2.20
2023-03-08T01:28:23.316Z,3.54
2023-03-08T01:29:13.548Z,3.48
2023-03-08T01:30:13.616Z,7.24
2023-03-08T01:31:13.926Z,4.32
2023-03-08T01:32:12.893Z,1.04
2023-03-08T01:33:12.833Z,0.00
2023-03-08T01:35:18.967Z,0.00
2023-03-08T01:36:13.095Z,0.12
2023-03-08T01:37:23.072Z,0.00
2023-03-08T01:38:13.466Z,3.60
2023-03-08T01:39:13.709Z,3.52
2023-03-08T01:42:13.352Z,0.80
2023-03-08T01:43:23.657Z,0.00
2023-03-08T01:45:41.566Z,0.00
2023-03-08T01:46:20.078Z,6.96
2023-03-08T01:48:13.162Z,0.82
2023-03-08T01:49:23.131Z,1.32
2023-03-08T01:50:13.520Z,0.12
2023-03-08T01:51:13.474Z,1.72
2023-03-08T01:52:13.637Z,0.64
2023-03-08T01:53:13.775Z,0.00
2023-03-08T01:54:13.810Z,2.12
2023-03-08T01:55:13.010Z,0.24
2023-03-08T01:56:26.291Z,0.00
2023-03-08T01:57:13.228Z,0.12
2023-03-08T01:58:18.219Z,0.00
2023-03-08T01:59:13.076Z,2.64
2023-03-08T02:00:13.181Z,0.00
2023-03-08T02:01:13.142Z,0.00
2023-03-08T02:02:13.093Z,0.00
2023-03-08T02:03:13.030Z,0.28
2023-03-08T02:04:13.259Z,0.00
2023-03-08T02:05:13.278Z,2.00
2023-03-08T02:06:13.460Z,1.68
2023-03-08T02:07:13.400Z,0.00
2023-03-08T02:08:13.404Z,0.00
2023-03-08T02:09:29.970Z,0.00
2023-03-08T02:10:13.052Z,0.08
2023-03-08T02:11:12.943Z,0.00
2023-03-08T02:12:12.846Z,0.00
2023-03-08T02:13:13.754Z,0.00
2023-03-08T02:14:13.614Z,0.00
2023-03-08T02:15:13.653Z,2.36
2023-03-08T02:16:13.674Z,11.48
2023-03-08T02:17:13.871Z,2.20
2023-03-08T02:18:13.841Z,0.68
2023-03-08T02:19:13.796Z,1.04
2023-03-08T02:20:13.930Z,2.60
2023-03-08T02:21:12.883Z,3.40
2023-03-08T02:22:13.237Z,1.28
2023-03-08T02:23:13.157Z,0.24
2023-03-08T02:24:13.416Z,0.00
2023-03-08T02:25:13.345Z,3.40
2023-03-08T02:26:14.814Z,6.12
2023-03-08T02:27:13.919Z,2.04
2023-03-08T02:28:12.957Z,0.56
2023-03-08T02:29:23.069Z,0.72
2023-03-08T02:30:12.955Z,0.00
2023-03-08T02:31:13.128Z,0.76
2023-03-08T02:32:13.370Z,0.32
2023-03-08T02:33:13.436Z,0.08
2023-03-08T02:34:13.504Z,0.92
2023-03-08T02:35:13.723Z,0.56
2023-03-08T02:36:13.646Z,1.56
2023-03-08T02:37:13.982Z,1.12
2023-03-08T02:38:12.993Z,2.16
2023-03-08T02:39:13.017Z,2.76
2023-03-08T02:40:12.975Z,3.32
2023-03-08T02:41:13.124Z,1.80
2023-03-08T02:42:13.206Z,0.00
2023-03-08T02:43:13.187Z,0.20
2023-03-08T02:44:13.257Z,0.64
2023-03-08T02:45:13.103Z,0.00
2023-03-08T02:46:13.213Z,1.40
2023-03-08T02:47:13.067Z,0.36
2023-03-08T02:48:13.136Z,1.12
2023-03-08T02:49:28.239Z,0.00
2023-03-08T02:50:13.573Z,0.12
2023-03-08T02:51:13.611Z,0.00
2023-03-08T02:52:13.630Z,0.20
2023-03-08T02:53:13.552Z,1.64
2023-03-08T02:54:19.530Z,0.14
2023-03-08T02:55:13.537Z,2.16
2023-03-08T02:56:13.703Z,1.28
2023-03-08T02:57:13.758Z,0.00
2023-03-08T02:58:14.232Z,1.12
2023-03-08T02:59:13.183Z,2.28
2023-03-08T03:00:13.154Z,0.92
2023-03-08T03:01:13.170Z,0.20
2023-03-08T03:02:13.098Z,0.56
2023-03-08T03:03:19.993Z,0.00
2023-03-08T03:04:13.051Z,0.08
2023-03-08T03:05:13.270Z,3.84
2023-03-08T03:06:13.386Z,3.44
2023-03-08T03:07:13.563Z,1.56
2023-03-08T03:08:13.616Z,0.12
2023-03-08T03:09:14.156Z,1.00
2023-03-08T03:10:13.081Z,0.24
2023-03-08T03:11:37.539Z,0.48
2023-03-08T03:12:13.667Z,8.76
2023-03-08T03:13:29.084Z,1.44
2023-03-08T03:14:13.083Z,3.60
2023-03-08T03:15:13.008Z,2.20
2023-03-08T03:16:13.506Z,5.00
2023-03-08T03:17:13.453Z,4.92
2023-03-08T03:18:13.685Z,8.96
2023-03-08T03:19:13.736Z,1.80
2023-03-08T03:20:29.028Z,4.08
2023-03-08T03:21:13.082Z,0.12
2023-03-08T03:22:14.255Z,0.00
2023-03-08T03:23:18.376Z,0.72
2023-03-08T03:24:35.918Z,0.00
2023-03-08T03:25:13.299Z,0.08
2023-03-08T03:26:25.140Z,2.74
2023-03-08T03:27:13.351Z,6.80
2023-03-08T03:28:13.467Z,2.64
2023-03-08T03:29:13.660Z,0.48
2023-03-08T03:30:13.726Z,0.24
2023-03-08T03:31:13.984Z,0.24
2023-03-08T03:32:13.768Z,1.24
2023-03-08T03:33:15.455Z,0.96
2023-03-08T03:35:39.873Z,3.52
2023-03-08T03:37:13.760Z,0.84
2023-03-08T03:38:13.809Z,0.40
2023-03-08T03:39:13.863Z,0.00
2023-03-08T03:40:24.088Z,0.00
2023-03-08T03:43:16.407Z,0.78
2023-03-08T03:44:13.652Z,0.12
2023-03-08T03:45:28.614Z,0.00
2023-03-08T03:46:13.704Z,0.12
2023-03-08T03:47:14.039Z,3.20
2023-03-08T03:48:13.069Z,2.32
2023-03-08T03:49:13.013Z,0.00
2023-03-08T03:50:13.002Z,0.00
2023-03-08T03:51:13.199Z,0.00
2023-03-08T03:54:13.495Z,5.60
2023-03-08T03:55:13.884Z,2.92
2023-03-08T03:56:16.727Z,0.00
2023-03-08T03:57:14.134Z,4.80
2023-03-08T03:58:13.252Z,1.64
2023-03-08T03:59:13.379Z,3.92
2023-03-08T04:00:13.643Z,2.60
2023-03-08T04:01:13.650Z,1.28
2023-03-08T04:02:14.188Z,2.88
2023-03-08T04:03:14.422Z,6.92
2023-03-08T04:04:13.725Z,3.28
2023-03-08T04:05:13.930Z,3.64
2023-03-08T04:06:13.191Z,0.96
2023-03-08T04:07:13.365Z,0.00
2023-03-08T04:08:13.793Z,1.16
2023-03-08T04:09:13.993Z,3.32
2023-03-08T04:10:13.222Z,4.44
2023-03-08T04:11:13.204Z,0.88
2023-03-08T04:12:13.415Z,0.64
2023-03-08T04:13:13.483Z,0.84
2023-03-08T04:14:13.638Z,0.24
2023-03-08T04:15:13.657Z,0.00
2023-03-08T04:16:13.688Z,0.76
2023-03-08T04:17:23.934Z,1.44
2023-03-08T04:18:12.779Z,1.12
2023-03-08T04:19:13.867Z,0.00
2023-03-08T04:20:14.340Z,0.00
2023-03-08T04:21:16.667Z,0.00
2023-03-08T04:22:13.808Z,3.20
2023-03-08T04:23:13.709Z,0.60
2023-03-08T04:24:13.698Z,0.00
2023-03-08T04:25:13.818Z,0.00
2023-03-08T04:26:13.809Z,0.00
2023-03-08T04:27:14.145Z,0.00
2023-03-08T04:28:14.310Z,0.00
2023-03-08T04:29:13.263Z,0.00
2023-03-08T04:30:13.317Z,0.00
2023-03-08T04:31:13.476Z,0.00
2023-03-08T04:32:13.682Z,0.00
2023-03-08T04:33:13.691Z,0.00
2023-03-08T04:34:14.727Z,0.00
2023-03-08T04:35:19.275Z,0.00
2023-03-08T04:36:13.269Z,0.00
2023-03-08T04:37:13.443Z,0.00
2023-03-08T04:38:13.363Z,0.00
2023-03-08T04:39:13.816Z,0.00
2023-03-08T04:40:14.066Z,0.00
2023-03-08T04:41:21.996Z,0.00
2023-03-08T04:42:13.169Z,0.00
2023-03-08T04:43:13.246Z,0.00
2023-03-08T04:44:14.445Z,0.00
2023-03-08T04:45:13.323Z,0.00
2023-03-08T04:46:13.629Z,0.00
2023-03-08T04:47:18.831Z,0.00
2023-03-08T04:48:13.883Z,0.00
2023-03-08T04:49:14.105Z,0.00
2023-03-08T04:50:13.228Z,0.00
2023-03-08T04:51:13.246Z,0.00
2023-03-08T04:52:13.304Z,0.00
2023-03-08T04:53:13.595Z,0.00
2023-03-08T04:54:13.663Z,0.00
2023-03-08T04:55:13.872Z,0.00
2023-03-08T04:56:14.346Z,0.00
2023-03-08T04:57:20.752Z,0.00
2023-03-08T04:58:12.863Z,0.00
2023-03-08T04:59:14.108Z,0.00
2023-03-08T05:00:13.184Z,0.00
2023-03-08T05:02:14.288Z,0.05
2023-03-08T05:03:24.004Z,0.00
2023-03-08T05:04:24.548Z,0.12
2023-03-08T05:05:13.980Z,0.12
2023-03-08T05:06:12.987Z,0.00
2023-03-08T05:07:13.242Z,0.00
2023-03-08T05:08:34.362Z,0.24
2023-03-08T05:09:13.413Z,0.24
2023-03-08T05:10:13.381Z,0.04
2023-03-08T05:11:18.407Z,0.00
2023-03-08T05:12:13.950Z,0.12
2023-03-08T05:13:13.275Z,0.00
2023-03-08T05:14:13.251Z,0.00
2023-03-08T05:15:13.738Z,0.00
2023-03-08T05:16:24.009Z,0.00
2023-03-08T05:18:18.634Z,0.04
2023-03-08T05:19:13.857Z,0.00
2023-03-08T05:20:12.969Z,0.00
2023-03-08T05:21:13.025Z,0.00
2023-03-08T05:22:18.839Z,0.00
2023-03-08T05:23:13.996Z,0.00
2023-03-08T05:24:13.378Z,0.00
2023-03-08T05:25:13.690Z,0.00
2023-03-08T05:26:13.617Z,0.00
2023-03-08T05:27:13.542Z,0.00
2023-03-08T05:28:13.713Z,0.00
2023-03-08T05:29:13.994Z,0.00
2023-03-08T05:30:13.251Z,0.00
2023-03-08T05:31:13.499Z,0.00
2023-03-08T05:32:14.786Z,0.00
2023-03-08T05:33:14.141Z,0.00
2023-03-08T05:34:13.404Z,0.00
2023-03-08T05:35:13.555Z,0.00
2023-03-08T05:36:13.718Z,0.00
2023-03-08T05:37:13.756Z,0.00
2023-03-08T05:38:14.337Z,0.12
2023-03-08T05:39:13.669Z,0.00
2023-03-08T05:40:14.187Z,0.00
2023-03-08T05:41:13.471Z,0.00
2023-03-08T05:42:13.508Z,0.00
2023-03-08T05:43:13.568Z,0.00
2023-03-08T05:44:13.961Z,0.00
2023-03-08T05:45:13.180Z,0.00
2023-03-08T05:46:13.608Z,0.00
2023-03-08T05:47:13.917Z,0.00
2023-03-08T05:48:12.825Z,0.00
2023-03-08T05:49:13.910Z,0.00
2023-03-08T05:50:13.026Z,0.00
2023-03-08T05:51:13.135Z,0.00
2023-03-08T05:52:13.102Z,0.00
2023-03-08T05:53:12.993Z,0.00
2023-03-08T05:54:12.847Z,0.00
2023-03-08T05:55:13.943Z,0.00
2023-03-08T05:56:27.975Z,0.00
2023-03-08T05:57:28.360Z,0.08
2023-03-08T05:58:13.873Z,0.00
2023-03-08T05:59:14.860Z,0.00
2023-03-08T06:00:13.807Z,0.00
2023-03-08T06:01:14.273Z,0.00
2023-03-08T06:02:13.257Z,0.00
2023-03-08T06:03:13.561Z,0.00
2023-03-08T06:04:13.837Z,0.00
2023-03-08T06:05:13.844Z,0.00
2023-03-08T06:06:13.781Z,1.16
2023-03-08T06:07:14.128Z,0.84
2023-03-08T06:08:13.385Z,0.60
2023-03-08T06:09:13.405Z,0.28
2023-03-08T06:10:13.423Z,1.08
2023-03-08T06:11:13.308Z,0.00
2023-03-08T06:12:13.169Z,1.08
2023-03-08T06:13:13.172Z,2.76
2023-03-08T06:14:13.529Z,0.80
2023-03-08T06:15:13.496Z,0.84
2023-03-08T06:16:13.594Z,1.80
2023-03-08T06:17:13.748Z,1.20
2023-03-08T06:18:13.813Z,2.00
2023-03-08T06:19:14.024Z,0.00
2023-03-08T06:20:13.048Z,0.00
2023-03-08T06:21:13.054Z,0.00
2023-03-08T06:22:13.189Z,0.16
2023-03-08T06:23:13.540Z,0.24
2023-03-08T06:24:14.300Z,0.72
2023-03-08T06:25:13.429Z,0.76
2023-03-08T06:26:13.832Z,0.00
2023-03-08T06:27:13.878Z,0.00
2023-03-08T06:28:12.778Z,3.16
2023-03-08T06:29:13.772Z,2.24
2023-03-08T06:30:13.689Z,0.00
2023-03-08T06:31:13.902Z,0.80
2023-03-08T06:32:12.934Z,0.12
2023-03-08T06:33:12.849Z,0.00
2023-03-08T06:34:14.019Z,0.48
2023-03-08T06:35:13.045Z,0.16
2023-03-08T06:36:13.036Z,0.00
2023-03-08T06:37:13.248Z,0.00
2023-03-08T06:38:13.215Z,0.00
2023-03-08T06:39:13.285Z,0.00
2023-03-08T06:41:13.428Z,0.68
2023-03-08T06:42:13.769Z,0.00
2023-03-08T06:43:14.179Z,0.00
2023-03-08T06:44:23.785Z,0.48
2023-03-08T06:45:14.087Z,0.72
2023-03-08T06:46:13.202Z,0.44
2023-03-08T06:47:13.183Z,0.00
2023-03-08T06:48:13.166Z,0.00
2023-03-08T06:49:13.172Z,0.00
2023-03-08T06:50:13.712Z,1.48
2023-03-08T06:51:13.697Z,0.00
2023-03-08T06:52:13.729Z,0.00
2023-03-08T06:53:13.962Z,1.00
2023-03-08T06:54:18.098Z,1.00
2023-03-08T06:55:13.167Z,0.24
2023-03-08T06:56:13.278Z,1.48
2023-03-08T06:57:13.472Z,0.28
2023-03-08T06:58:13.361Z,0.80
2023-03-08T06:59:13.577Z,0.16
2023-03-08T07:00:13.705Z,0.16
2023-03-08T07:01:13.753Z,0.84
2023-03-08T07:02:13.757Z,3.80
2023-03-08T07:03:14.053Z,0.24
2023-03-08T07:04:13.334Z,0.00
2023-03-08T07:05:13.364Z,0.24
2023-03-08T07:06:13.332Z,0.00
2023-03-08T07:07:13.352Z,1.96
2023-03-08T07:08:13.309Z,0.72
2023-03-08T07:09:13.384Z,0.00
2023-03-08T07:10:13.598Z,0.88
2023-03-08T07:11:13.685Z,0.00
2023-03-08T07:12:13.649Z,0.84
2023-03-08T07:13:13.925Z,0.00
2023-03-08T07:14:12.875Z,0.00
2023-03-08T07:15:14.021Z,0.00
2023-03-08T07:16:13.131Z,0.00
2023-03-08T07:17:13.330Z,0.00
2023-03-08T07:18:15.898Z,2.24
2023-03-08T07:19:13.062Z,0.52
2023-03-08T07:20:33.579Z,0.36
2023-03-08T07:21:13.803Z,0.08
2023-03-08T07:22:13.995Z,0.80
2023-03-08T07:23:13.483Z,0.72
2023-03-08T07:24:13.568Z,0.36
2023-03-08T07:25:13.657Z,1.20
2023-03-08T07:26:13.596Z,0.04
2023-03-08T07:27:14.427Z,0.88
2023-03-08T07:28:13.932Z,0.36
2023-03-08T07:29:18.882Z,0.00
2023-03-08T07:30:13.155Z,0.00
2023-03-08T07:31:13.235Z,1.20
2023-03-08T07:32:13.268Z,1.40
2023-03-08T07:33:13.349Z,0.44
2023-03-08T07:34:18.366Z,0.12
2023-03-08T07:35:13.422Z,1.60
2023-03-08T07:36:13.758Z,1.40
2023-03-08T07:37:13.910Z,2.88
2023-03-08T07:38:12.798Z,0.44
2023-03-08T07:39:13.749Z,1.16
2023-03-08T07:40:13.838Z,0.96
2023-03-08T07:41:14.145Z,0.68
2023-03-08T07:42:17.981Z,0.00
2023-03-08T07:43:13.070Z,0.28
2023-03-08T07:44:13.777Z,3.20
2023-03-08T07:45:14.098Z,1.48
2023-03-08T07:46:13.321Z,0.56
2023-03-08T07:47:13.288Z,0.24
2023-03-08T07:48:13.193Z,2.68
2023-03-08T07:49:13.191Z,1.64
2023-03-08T07:50:13.164Z,2.68
2023-03-08T07:51:13.247Z,1.04
2023-03-08T07:52:37.064Z,0.00
2023-03-08T07:53:13.204Z,0.96
2023-03-08T07:54:13.165Z,0.00
2023-03-08T07:55:13.115Z,0.28
2023-03-08T07:56:13.197Z,1.64
2023-03-08T07:57:13.174Z,0.64
2023-03-08T07:58:13.097Z,2.44
2023-03-08T07:59:13.455Z,4.16
2023-03-08T08:00:13.546Z,5.80
2023-03-08T08:01:13.520Z,1.76
2023-03-08T08:02:13.622Z,1.36
2023-03-08T08:03:13.709Z,3.24
2023-03-08T08:04:13.856Z,0.88
2023-03-08T08:05:13.873Z,2.60
2023-03-08T08:06:13.147Z,1.48
2023-03-08T08:07:13.071Z,2.84
2023-03-08T08:08:13.129Z,1.92
2023-03-08T08:09:18.275Z,1.32
2023-03-08T08:10:13.164Z,3.60
2023-03-08T08:11:13.097Z,0.48
2023-03-08T08:12:13.334Z,1.20
2023-03-08T08:13:13.560Z,1.96
2023-03-08T08:14:13.601Z,2.36
2023-03-08T08:15:13.611Z,1.08
2023-03-08T08:16:15.145Z,4.48
2023-03-08T08:17:13.796Z,2.60
2023-03-08T08:18:14.115Z,2.16
2023-03-08T08:19:13.513Z,3.12
2023-03-08T08:20:13.641Z,3.56
2023-03-08T08:21:13.727Z,6.16
2023-03-08T08:22:13.788Z,6.68
2023-03-08T08:23:13.755Z,4.08
2023-03-08T08:24:13.929Z,2.28
2023-03-08T08:25:12.844Z,0.40
2023-03-08T08:26:14.304Z,3.08
2023-03-08T08:27:15.259Z,3.68
2023-03-08T08:28:13.614Z,3.52
2023-03-08T08:29:13.766Z,4.72
2023-03-08T08:30:13.879Z,3.96
2023-03-08T08:31:12.842Z,3.36
2023-03-08T08:32:14.036Z,3.24
2023-03-08T08:33:14.376Z,4.52
2023-03-08T08:34:13.293Z,5.96
2023-03-08T08:35:13.260Z,7.36
2023-03-08T08:36:13.859Z,1.68
2023-03-08T08:37:13.084Z,3.16
2023-03-08T08:38:13.148Z,2.48
2023-03-08T08:39:13.081Z,4.08
2023-03-08T08:40:13.073Z,3.36
2023-03-08T08:41:13.058Z,1.60
2023-03-08T08:42:12.972Z,3.04
2023-03-08T08:43:12.904Z,4.76
2023-03-08T08:44:13.399Z,1.80
2023-03-08T08:45:13.339Z,1.00
2023-03-08T08:46:13.285Z,3.52
2023-03-08T08:47:13.231Z,3.88
2023-03-08T08:48:13.236Z,5.68
2023-03-08T08:49:13.621Z,0.72
2023-03-08T08:50:14.214Z,3.84
2023-03-08T08:51:13.668Z,4.32
2023-03-08T08:52:13.900Z,6.00
2023-03-08T08:53:13.061Z,12.40
2023-03-08T08:54:13.218Z,4.60
2023-03-08T08:55:13.589Z,5.60
2023-03-08T08:57:13.087Z,4.80
2023-03-08T08:58:13.214Z,8.60
2023-03-08T08:59:13.269Z,5.48
2023-03-08T09:00:13.242Z,4.88
2023-03-08T09:01:13.287Z,9.56
2023-03-08T09:02:23.526Z,6.12
2023-03-08T09:03:13.893Z,8.92
2023-03-08T09:04:13.174Z,9.60
2023-03-08T09:05:13.287Z,11.12
2023-03-08T09:06:13.407Z,8.40
2023-03-08T09:07:13.419Z,4.48
2023-03-08T09:08:13.434Z,9.88
2023-03-08T09:09:13.514Z,3.32
2023-03-08T09:10:13.873Z,5.08
2023-03-08T09:11:13.906Z,13.40
2023-03-08T09:12:12.872Z,12.08
2023-03-08T09:13:14.168Z,10.56
2023-03-08T09:14:13.304Z,9.20
2023-03-08T09:15:13.539Z,3.36
2023-03-08T09:16:29.214Z,8.12
2023-03-08T09:17:13.631Z,2.68
2023-03-08T09:18:34.117Z,2.56
2023-03-08T09:19:14.566Z,3.12
2023-03-08T09:20:13.619Z,11.31
2023-03-08T09:21:13.954Z,1.88
2023-03-08T09:22:45.886Z,11.40
2023-03-08T09:23:13.053Z,9.84
2023-03-08T09:24:28.817Z,10.08
2023-03-08T09:25:13.881Z,7.56
2023-03-08T09:26:23.952Z,14.34
2023-03-08T09:27:12.850Z,6.24
2023-03-08T09:28:25.265Z,11.12
2023-03-08T09:29:13.386Z,4.40
2023-03-08T09:30:13.429Z,3.48
2023-03-08T09:31:23.822Z,11.33
2023-03-08T09:32:12.972Z,7.44
2023-03-08T09:33:13.263Z,2.64
2023-03-08T09:34:39.691Z,10.32
2023-03-08T09:36:13.744Z,7.68
2023-03-08T09:37:24.965Z,4.74
2023-03-08T09:38:12.915Z,4.80
2023-03-08T09:39:13.016Z,1.44
2023-03-08T09:40:23.874Z,8.22
2023-03-08T09:41:13.105Z,13.92
2023-03-08T09:42:13.005Z,6.72
2023-03-08T09:43:25.877Z,9.15
2023-03-08T09:44:14.644Z,5.92
2023-03-08T09:45:13.634Z,3.88
2023-03-08T09:46:35.160Z,4.20
2023-03-08T09:47:26.568Z,4.32
2023-03-08T09:48:13.963Z,4.84
2023-03-08T09:49:13.445Z,4.68
2023-03-08T09:50:17.346Z,3.60
2023-03-08T09:51:38.616Z,2.64
2023-03-08T09:52:14.085Z,3.04
2023-03-08T09:53:13.145Z,4.68
2023-03-08T09:54:13.490Z,2.04
2023-03-08T09:55:13.729Z,11.92
2023-03-08T09:56:13.910Z,6.04
2023-03-08T09:57:29.093Z,13.36
2023-03-08T09:59:14.082Z,8.76
2023-03-08T10:00:13.321Z,4.56
2023-03-08T10:01:18.397Z,9.24
2023-03-08T10:02:13.889Z,14.52
2023-03-08T10:06:13.730Z,9.31
2023-03-08T10:07:14.157Z,6.12
2023-03-08T10:08:13.362Z,10.32
2023-03-08T10:09:13.551Z,16.80
2023-03-08T10:10:13.558Z,15.32
2023-03-08T10:11:13.712Z,8.52
2023-03-08T10:12:13.893Z,4.76
2023-03-08T10:13:13.107Z,8.24
2023-03-08T10:14:13.088Z,10.04
2023-03-08T10:16:14.124Z,15.24
2023-03-08T10:17:13.505Z,4.28
2023-03-08T10:18:13.520Z,5.16
2023-03-08T10:19:13.730Z,9.72
2023-03-08T10:20:14.173Z,7.04
2023-03-08T10:21:18.953Z,2.44
2023-03-08T10:22:23.709Z,6.20
2023-03-08T10:23:13.811Z,11.72
2023-03-08T10:24:14.012Z,14.12
2023-03-08T10:26:30.727Z,3.36
2023-03-08T10:27:18.932Z,3.67
2023-03-08T10:28:13.136Z,2.96
2023-03-08T10:29:32.631Z,8.76
2023-03-08T10:30:34.147Z,9.36
2023-03-08T10:31:13.340Z,9.02
2023-03-08T10:32:13.758Z,5.00
2023-03-08T10:33:13.923Z,11.08
2023-03-08T10:34:13.046Z,4.72
2023-03-08T10:35:13.107Z,7.72
2023-03-08T10:36:13.290Z,4.36
2023-03-08T10:38:35.766Z,14.40
2023-03-08T10:39:24.539Z,10.88
2023-03-08T10:41:21.587Z,10.64
2023-03-08T10:42:13.845Z,3.24
2023-03-08T10:43:19.376Z,6.42
2023-03-08T10:44:29.603Z,5.04
2023-03-08T10:45:14.091Z,1.92
2023-03-08T10:46:23.358Z,1.86
2023-03-08T10:47:12.934Z,3.24
2023-03-08T10:48:13.083Z,4.32
2023-03-08T10:49:13.139Z,3.96
2023-03-08T10:50:13.430Z,8.16
2023-03-08T10:51:13.564Z,2.78
2023-03-08T10:52:23.115Z,4.80
2023-03-08T10:53:13.119Z,3.48
2023-03-08T10:54:13.052Z,2.44
2023-03-08T10:55:22.966Z,8.28
2023-03-08T10:56:12.982Z,5.16
2023-03-08T10:57:13.126Z,0.64
2023-03-08T10:58:14.200Z,2.28
2023-03-08T10:59:13.192Z,9.80
2023-03-08T11:00:13.093Z,11.52
2023-03-08T11:01:13.122Z,5.16
2023-03-08T11:02:13.152Z,2.72
2023-03-08T11:03:18.580Z,6.00
2023-03-08T11:04:13.624Z,3.32
2023-03-08T11:05:23.754Z,2.64
2023-03-08T11:06:23.708Z,5.44
2023-03-08T11:07:15.432Z,2.80
2023-03-08T11:08:13.453Z,15.84
2023-03-08T11:09:50.169Z,10.46
2023-03-08T11:10:13.513Z,7.84
2023-03-08T11:11:23.368Z,9.40
2023-03-08T11:12:20.653Z,6.06
2023-03-08T11:13:13.923Z,12.90
2023-03-08T11:14:17.993Z,5.44
2023-03-08T11:15:13.052Z,9.56
2023-03-08T11:16:13.354Z,5.96
2023-03-08T11:17:13.443Z,13.60
2023-03-08T11:18:13.419Z,10.80
2023-03-08T11:19:13.549Z,6.52
2023-03-08T11:20:13.944Z,7.96
2023-03-08T11:21:12.850Z,6.48
2023-03-08T11:23:13.280Z,10.48
2023-03-08T11:24:16.423Z,9.64
2023-03-08T11:25:13.679Z,7.32
2023-03-08T11:26:13.737Z,4.12
2023-03-08T11:27:14.075Z,4.52
2023-03-08T11:28:13.410Z,11.48
2023-03-08T11:29:13.670Z,11.92
2023-03-08T11:30:13.702Z,15.76
2023-03-08T11:31:13.727Z,5.48
2023-03-08T11:32:13.823Z,10.88
2023-03-08T11:33:13.924Z,12.40
2023-03-08T11:34:13.099Z,6.64
2023-03-08T11:35:13.356Z,18.12
2023-03-08T11:36:13.641Z,6.88
2023-03-08T11:37:16.216Z,22.12
2023-03-08T11:38:15.061Z,7.96
2023-03-08T11:39:13.671Z,8.68
2023-03-08T11:40:14.247Z,10.20
2023-03-08T11:41:14.049Z,7.64
2023-03-08T11:42:13.237Z,14.88
2023-03-08T11:43:13.601Z,8.52
2023-03-08T11:44:13.834Z,5.88
2023-03-08T11:45:13.758Z,7.68
2023-03-08T11:46:14.672Z,2.08
2023-03-08T11:47:13.645Z,4.44
2023-03-08T11:48:13.568Z,4.52
2023-03-08T11:49:13.636Z,5.52
2023-03-08T11:50:14.060Z,5.52
2023-03-08T11:51:12.934Z,4.00
2023-03-08T11:52:12.817Z,6.28
2023-03-08T11:53:13.740Z,4.48
2023-03-08T11:54:13.886Z,9.12
2023-03-08T11:55:13.834Z,13.36
2023-03-08T11:56:13.930Z,12.48
2023-03-08T11:57:18.044Z,13.12
2023-03-08T11:58:13.014Z,9.16
2023-03-08T11:59:13.170Z,10.64
2023-03-08T12:00:13.179Z,9.52
2023-03-08T12:01:13.237Z,12.08
2023-03-08T12:02:13.367Z,8.16
2023-03-08T12:03:13.452Z,9.84
2023-03-08T12:04:13.766Z,8.72
2023-03-08T12:05:13.732Z,4.36
2023-03-08T12:06:26.542Z,8.32
2023-03-08T12:07:13.761Z,13.68
2023-03-08T12:08:13.995Z,10.48
2023-03-08T12:09:12.933Z,8.60
2023-03-08T12:10:13.357Z,20.80
2023-03-08T12:11:13.400Z,10.88
2023-03-08T12:12:13.374Z,10.56
2023-03-08T12:13:13.350Z,12.44
2023-03-08T12:14:13.584Z,10.44
2023-03-08T12:15:13.808Z,5.64
2023-03-08T12:16:14.017Z,3.92
2023-03-08T12:17:13.145Z,6.60
2023-03-08T12:18:13.251Z,12.32
2023-03-08T12:19:13.412Z,6.00
2023-03-08T12:20:13.412Z,12.84
2023-03-08T12:21:13.660Z,4.12
2023-03-08T12:22:13.622Z,6.96
2023-03-08T12:23:13.637Z,8.72
2023-03-08T12:24:13.643Z,5.60
2023-03-08T12:25:13.648Z,8.92
2023-03-08T12:26:13.578Z,12.40
2023-03-08T12:27:13.833Z,10.68
2023-03-08T12:28:13.879Z,2.56
2023-03-08T12:29:13.191Z,0.32
2023-03-08T12:30:13.217Z,13.72
2023-03-08T12:31:26.476Z,14.80
2023-03-08T12:32:13.808Z,10.12
2023-03-08T12:33:13.432Z,7.52
2023-03-08T12:34:13.511Z,11.04
2023-03-08T12:35:13.521Z,20.68
2023-03-08T12:36:13.852Z,6.36
2023-03-08T12:37:13.031Z,3.80
2023-03-08T12:38:13.441Z,11.16
2023-03-08T12:39:13.371Z,7.40
2023-03-08T12:40:13.364Z,6.80
2023-03-08T12:41:13.319Z,1.56
2023-03-08T12:42:13.398Z,6.64
2023-03-08T12:43:13.515Z,6.56
2023-03-08T12:44:13.454Z,0.88
2023-03-08T12:45:13.539Z,0.76
2023-03-08T12:46:13.430Z,13.20
2023-03-08T12:47:13.622Z,14.20
2023-03-08T12:48:13.797Z,8.40
2023-03-08T12:49:13.713Z,16.88
2023-03-08T12:50:13.812Z,13.32
2023-03-08T12:51:13.040Z,17.88
2023-03-08T12:52:13.255Z,13.08
2023-03-08T12:53:13.293Z,12.76
2023-03-08T12:54:13.261Z,9.64
2023-03-08T12:55:13.137Z,14.72
2023-03-08T12:56:12.963Z,10.72
2023-03-08T12:57:12.947Z,9.72
2023-03-08T12:58:12.903Z,11.60
2023-03-08T12:59:12.798Z,16.92
2023-03-08T13:00:13.681Z,11.36
2023-03-08T13:01:13.649Z,8.52
2023-03-08T13:02:13.678Z,12.00
2023-03-08T13:03:13.624Z,15.12
2023-03-08T13:04:13.651Z,5.40
2023-03-08T13:05:13.657Z,5.12
2023-03-08T13:06:13.616Z,11.64
2023-03-08T13:07:13.540Z,8.60
2023-03-08T13:08:13.690Z,4.08
2023-03-08T13:09:13.755Z,3.40
2023-03-08T13:10:13.840Z,11.20
2023-03-08T13:11:14.961Z,8.40
2023-03-08T13:12:13.099Z,3.60
2023-03-08T13:13:30.869Z,5.36
2023-03-08T13:14:13.251Z,1.12
2023-03-08T13:15:13.678Z,7.52
2023-03-08T13:16:13.955Z,8.56
2023-03-08T13:17:13.443Z,11.84
2023-03-08T13:18:13.667Z,7.36
2023-03-08T13:19:13.648Z,5.40
2023-03-08T13:20:13.689Z,6.92
2023-03-08T13:21:13.635Z,5.60
2023-03-08T13:22:13.958Z,10.40
2023-03-08T13:23:13.007Z,1.56
2023-03-08T13:24:13.260Z,1.24
2023-03-08T13:25:13.275Z,0.32
2023-03-08T13:26:13.425Z,2.08
2023-03-08T13:27:13.707Z,2.96
2023-03-08T13:28:14.129Z,7.32
2023-03-08T13:29:13.393Z,8.40
2023-03-08T13:30:13.431Z,3.36
2023-03-08T13:31:14.724Z,8.52
2023-03-08T13:32:13.271Z,6.80
2023-03-08T13:33:13.328Z,13.96
2023-03-08T13:34:13.490Z,12.60
2023-03-08T13:35:13.393Z,3.92
2023-03-08T13:36:13.491Z,2.00
2023-03-08T13:37:13.565Z,5.60
2023-03-08T13:38:13.440Z,6.48
2023-03-08T13:39:13.582Z,9.48
2023-03-08T13:40:13.485Z,9.36